createdAt,value
2018-12-15T00:00:39.892Z,0
2018-12-15T00:01:40.161Z,0
2018-12-15T00:02:39.881Z,0
2018-12-15T00:03:41.716Z,0
2018-12-15T00:04:40.097Z,0
2018-12-15T00:05:39.837Z,0
2018-12-15T00:06:39.822Z,0
2018-12-15T00:07:40.069Z,0
2018-12-15T00:08:40.303Z,0
2018-12-15T00:09:40.034Z,0
2018-12-15T00:10:39.775Z,0
2018-12-15T00:11:40.274Z,0
2018-12-15T00:12:40.065Z,0
2018-12-15T00:13:40.237Z,0
2018-12-15T00:14:39.728Z,0
2018-12-15T00:15:40.204Z,0
2018-12-15T00:16:40.193Z,0
2018-12-15T00:17:39.935Z,0
2018-12-15T00:18:39.663Z,0
2018-12-15T00:19:40.166Z,0
2018-12-15T00:20:39.650Z,0
2018-12-15T00:21:40.140Z,0
2018-12-15T00:22:39.866Z,0
2018-12-15T00:23:40.116Z,0
2018-12-15T00:24:39.859Z,0
2018-12-15T00:25:39.590Z,0
2018-12-15T00:26:39.835Z,0
2018-12-15T00:27:39.812Z,0
2018-12-15T00:28:39.815Z,0
2018-12-15T00:29:40.037Z,0
2018-12-15T00:30:39.555Z,0
2018-12-15T00:31:40.003Z,0
2018-12-15T00:32:39.772Z,0
2018-12-15T00:33:39.895Z,0
2018-12-15T00:34:39.982Z,0
2018-12-15T00:35:39.491Z,0
2018-12-15T00:36:39.721Z,0
2018-12-15T00:37:39.719Z,0
2018-12-15T00:38:39.462Z,0
2018-12-15T00:39:39.676Z,0
2018-12-15T00:40:39.188Z,0
2018-12-15T00:41:39.674Z,0
2018-12-15T00:42:39.442Z,0
2018-12-15T00:43:39.879Z,0
2018-12-15T00:44:39.648Z,0
2018-12-15T00:45:39.612Z,0
2018-12-15T00:46:39.112Z,0
2018-12-15T00:47:39.585Z,0
2018-12-15T00:48:39.621Z,0
2018-12-15T00:49:39.852Z,0
2018-12-15T00:50:39.565Z,0
2018-12-15T00:51:39.061Z,0
2018-12-15T00:52:39.611Z,0
2018-12-15T00:53:39.535Z,0
2018-12-15T00:54:39.514Z,0
2018-12-15T00:55:39.522Z,0
2018-12-15T00:56:39.759Z,0
2018-12-15T00:57:39.508Z,0
2018-12-15T00:58:39.478Z,0
2018-12-15T00:59:39.448Z,0
2018-12-15T01:00:39.195Z,0
2018-12-15T01:01:39.688Z,0
2018-12-15T01:02:39.149Z,0
2018-12-15T01:03:39.149Z,0
2018-12-15T01:04:41.233Z,0
2018-12-15T01:05:39.208Z,0
2018-12-15T01:06:39.597Z,0
2018-12-15T01:07:40.057Z,0
2018-12-15T01:08:39.096Z,0
2018-12-15T01:09:39.569Z,0
2018-12-15T01:10:39.060Z,0
2018-12-15T01:11:39.060Z,0
2018-12-15T01:12:39.368Z,0
2018-12-15T01:13:39.541Z,0
2018-12-15T01:14:39.278Z,0
2018-12-15T01:15:38.509Z,0
2018-12-15T01:16:39.260Z,0
2018-12-15T01:17:39.005Z,0
2018-12-15T01:18:38.735Z,0
2018-12-15T01:19:38.712Z,0
2018-12-15T01:20:38.963Z,0
2018-12-15T01:21:39.462Z,0
2018-12-15T01:22:38.924Z,0
2018-12-15T01:23:39.395Z,0
2018-12-15T01:24:39.149Z,0
2018-12-15T01:25:38.895Z,0
2018-12-15T01:26:38.887Z,0
2018-12-15T01:27:39.116Z,0
2018-12-15T01:28:38.863Z,0
2018-12-15T01:29:39.341Z,0
2018-12-15T01:30:38.874Z,0
2018-12-15T01:31:38.827Z,0
2018-12-15T01:32:38.317Z,0
2018-12-15T01:33:39.047Z,0
2018-12-15T01:34:39.862Z,0
2018-12-15T01:35:39.033Z,0
2018-12-15T01:36:38.328Z,0
2018-12-15T01:37:38.757Z,0
2018-12-15T01:38:38.499Z,0
2018-12-15T01:39:38.986Z,0
2018-12-15T01:40:38.477Z,0
2018-12-15T01:41:38.973Z,0
2018-12-15T01:42:38.718Z,0
2018-12-15T01:43:38.460Z,0
2018-12-15T01:44:38.919Z,0
2018-12-15T01:45:38.898Z,0
2018-12-15T01:46:38.661Z,0
2018-12-15T01:47:38.664Z,0
2018-12-15T01:48:38.403Z,0
2018-12-15T01:49:39.115Z,0
2018-12-15T01:50:38.606Z,0
2018-12-15T01:51:38.345Z,0
2018-12-15T01:52:38.838Z,0
2018-12-15T01:53:38.560Z,0
2018-12-15T01:54:38.808Z,0
2018-12-15T01:55:39.038Z,0
2018-12-15T01:56:38.528Z,0
2018-12-15T01:57:38.792Z,0
2018-12-15T01:58:38.017Z,0
2018-12-15T01:59:38.504Z,0
2018-12-15T02:00:38.526Z,0
2018-12-15T02:01:38.476Z,0
2018-12-15T02:02:38.961Z,0
2018-12-15T02:03:38.193Z,0
2018-12-15T02:04:38.175Z,0
2018-12-15T02:05:38.436Z,0
2018-12-15T02:06:38.900Z,0
2018-12-15T02:07:38.658Z,0
2018-12-15T02:08:38.383Z,0
2018-12-15T02:09:38.632Z,0
2018-12-15T02:10:37.852Z,0
2018-12-15T02:11:38.365Z,0
2018-12-15T02:12:38.366Z,0
2018-12-15T02:13:38.351Z,0
2018-12-15T02:14:38.314Z,0
2018-12-15T02:15:38.549Z,0
2018-12-15T02:16:38.562Z,0
2018-12-15T02:17:43.046Z,0
2018-12-15T02:18:38.277Z,0
2018-12-15T02:19:37.775Z,0
2018-12-15T02:20:38.485Z,0
2018-12-15T02:21:38.809Z,0
2018-12-15T02:22:38.467Z,0
2018-12-15T02:23:38.230Z,0
2018-12-15T02:24:38.460Z,0
2018-12-15T02:25:38.174Z,0
2018-12-15T02:26:37.934Z,0
2018-12-15T02:27:38.407Z,0
2018-12-15T02:28:37.913Z,0
2018-12-15T02:29:38.374Z,0
2018-12-15T02:30:38.415Z,0
2018-12-15T02:31:38.483Z,0
2018-12-15T02:32:38.381Z,0
2018-12-15T02:33:38.114Z,0
2018-12-15T02:34:39.270Z,0
2018-12-15T02:35:38.349Z,0
2018-12-15T02:36:38.306Z,0
2018-12-15T02:37:38.359Z,0
2018-12-15T02:38:38.280Z,0
2018-12-15T02:39:38.543Z,0
2018-12-15T02:40:38.522Z,0
2018-12-15T02:41:37.991Z,0
2018-12-15T02:42:37.756Z,0
2018-12-15T02:43:38.210Z,0
2018-12-15T02:44:38.248Z,0
2018-12-15T02:45:38.212Z,0
2018-12-15T02:46:37.937Z,0
2018-12-15T02:47:46.107Z,0
2018-12-15T02:48:38.157Z,0
2018-12-15T02:49:37.653Z,0
2018-12-15T02:50:38.415Z,0
2018-12-15T02:51:37.877Z,0
2018-12-15T02:52:37.853Z,0
2018-12-15T02:53:38.134Z,0
2018-12-15T02:54:38.353Z,0
2018-12-15T02:55:37.619Z,0
2018-12-15T02:56:38.094Z,0
2018-12-15T02:57:37.826Z,0
2018-12-15T02:58:38.042Z,0
2018-12-15T02:59:38.293Z,0
2018-12-15T03:00:38.284Z,0
2018-12-15T03:01:38.272Z,0
2018-12-15T03:02:37.998Z,0
2018-12-15T03:03:38.300Z,0
2018-12-15T03:04:37.461Z,0
2018-12-15T03:05:37.704Z,0
2018-12-15T03:06:37.697Z,0
2018-12-15T03:07:38.192Z,0
2018-12-15T03:08:37.454Z,0
2018-12-15T03:09:37.661Z,0
2018-12-15T03:10:37.162Z,0
2018-12-15T03:11:37.643Z,0
2018-12-15T03:12:37.385Z,0
2018-12-15T03:13:37.866Z,0
2018-12-15T03:14:37.646Z,0
2018-12-15T03:15:37.624Z,0
2018-12-15T03:16:37.830Z,0
2018-12-15T03:17:37.932Z,0
2018-12-15T03:18:37.077Z,0
2018-12-15T03:19:37.818Z,0
2018-12-15T03:20:37.529Z,0
2018-12-15T03:21:37.848Z,0
2018-12-15T03:22:37.991Z,0
2018-12-15T03:23:38.016Z,0
2018-12-15T03:24:38.050Z,0
2018-12-15T03:25:37.964Z,0
2018-12-15T03:26:37.470Z,0
2018-12-15T03:27:38.058Z,0
2018-12-15T03:28:37.697Z,0
2018-12-15T03:29:37.434Z,0
2018-12-15T03:30:37.698Z,0
2018-12-15T03:31:39.287Z,0
2018-12-15T03:32:37.731Z,0
2018-12-15T03:33:37.376Z,0
2018-12-15T03:34:37.156Z,0
2018-12-15T03:35:40.308Z,0
2018-12-15T03:36:37.091Z,0
2018-12-15T03:37:37.107Z,0
2018-12-15T03:38:37.062Z,0
2018-12-15T03:39:37.324Z,0
2018-12-15T03:40:37.064Z,0
2018-12-15T03:41:37.536Z,0
2018-12-15T03:42:37.542Z,0
2018-12-15T03:43:37.280Z,0
2018-12-15T03:44:37.252Z,0
2018-12-15T03:45:37.249Z,0
2018-12-15T03:46:37.258Z,0
2018-12-15T03:47:36.973Z,0
2018-12-15T03:48:37.255Z,0
2018-12-15T03:49:37.204Z,0
2018-12-15T03:50:37.208Z,0
2018-12-15T03:51:37.169Z,0
2018-12-15T03:52:37.729Z,0
2018-12-15T03:53:37.405Z,0
2018-12-15T03:54:36.940Z,0
2018-12-15T03:55:37.689Z,0
2018-12-15T03:56:37.109Z,0
2018-12-15T03:57:37.110Z,0
2018-12-15T03:58:37.157Z,0
2018-12-15T03:59:37.618Z,0
2018-12-15T04:00:37.063Z,0
2018-12-15T04:01:37.555Z,0
2018-12-15T04:02:37.335Z,0
2018-12-15T04:03:37.301Z,0
2018-12-15T04:04:37.528Z,0
2018-12-15T04:05:37.993Z,0
2018-12-15T04:06:37.036Z,0
2018-12-15T04:07:37.264Z,0
2018-12-15T04:08:37.487Z,0
2018-12-15T04:09:37.214Z,0
2018-12-15T04:10:37.233Z,0
2018-12-15T04:11:36.756Z,0
2018-12-15T04:12:37.456Z,0
2018-12-15T04:13:37.177Z,0
2018-12-15T04:14:37.172Z,0
2018-12-15T04:15:37.400Z,0
2018-12-15T04:16:36.644Z,0
2018-12-15T04:17:37.374Z,0
2018-12-15T04:18:37.118Z,0
2018-12-15T04:19:37.373Z,0
2018-12-15T04:20:37.093Z,0
2018-12-15T04:21:36.352Z,0
2018-12-15T04:22:37.320Z,0
2018-12-15T04:23:36.803Z,0
2018-12-15T04:24:37.021Z,0
2018-12-15T04:25:37.033Z,0
2018-12-15T04:26:36.766Z,0
2018-12-15T04:27:36.744Z,0
2018-12-15T04:28:36.730Z,0
2018-12-15T04:29:36.730Z,0
2018-12-15T04:30:36.785Z,0
2018-12-15T04:31:36.728Z,0
2018-12-15T04:32:36.948Z,0
2018-12-15T04:33:36.696Z,0
2018-12-15T04:34:36.651Z,0
2018-12-15T04:35:37.066Z,0
2018-12-15T04:36:36.907Z,0
2018-12-15T04:37:36.382Z,0
2018-12-15T04:38:36.387Z,0
2018-12-15T04:39:36.422Z,0
2018-12-15T04:40:36.859Z,0
2018-12-15T04:41:37.086Z,0
2018-12-15T04:42:36.817Z,0
2018-12-15T04:43:36.812Z,0
2018-12-15T04:44:36.562Z,0
2018-12-15T04:45:36.590Z,0
2018-12-15T04:46:36.812Z,0
2018-12-15T04:47:36.773Z,0
2018-12-15T04:48:37.002Z,0
2018-12-15T04:49:36.779Z,0
2018-12-15T04:50:36.240Z,0
2018-12-15T04:51:36.496Z,0
2018-12-15T04:52:36.466Z,0
2018-12-15T04:53:36.740Z,0
2018-12-15T04:54:36.950Z,0
2018-12-15T04:55:36.181Z,0
2018-12-15T04:56:36.425Z,0
2018-12-15T04:57:36.640Z,0
2018-12-15T04:58:36.138Z,0
2018-12-15T04:59:36.423Z,0
2018-12-15T05:00:36.166Z,0
2018-12-15T05:01:36.375Z,0
2018-12-15T05:02:36.096Z,0
2018-12-15T05:03:36.355Z,0
2018-12-15T05:04:36.691Z,0
2018-12-15T05:05:36.356Z,0
2018-12-15T05:06:37.352Z,0
2018-12-15T05:07:36.521Z,0
2018-12-15T05:08:36.269Z,0
2018-12-15T05:09:36.789Z,0
2018-12-15T05:10:36.516Z,0
2018-12-15T05:11:36.491Z,0
2018-12-15T05:12:36.478Z,0
2018-12-15T05:13:36.462Z,0
2018-12-15T05:14:36.469Z,0
2018-12-15T05:15:36.450Z,0
2018-12-15T05:16:36.460Z,0
2018-12-15T05:17:36.434Z,0
2018-12-15T05:18:36.144Z,0
2018-12-15T05:19:36.646Z,0
2018-12-15T05:20:36.144Z,0
2018-12-15T05:21:36.398Z,0
2018-12-15T05:22:36.096Z,0
2018-12-15T05:23:36.097Z,0
2018-12-15T05:24:36.329Z,0
2018-12-15T05:25:35.818Z,0
2018-12-15T05:26:36.092Z,0
2018-12-15T05:27:36.537Z,0
2018-12-15T05:28:36.048Z,0
2018-12-15T05:29:36.258Z,0
2018-12-15T05:30:35.806Z,0
2018-12-15T05:31:36.547Z,0
2018-12-15T05:32:36.219Z,0
2018-12-15T05:33:36.546Z,0
2018-12-15T05:34:36.220Z,0
2018-12-15T05:35:35.950Z,0
2018-12-15T05:36:36.327Z,0
2018-12-15T05:37:35.915Z,0
2018-12-15T05:38:36.166Z,0
2018-12-15T05:39:35.658Z,0
2018-12-15T05:40:36.191Z,0
2018-12-15T05:41:36.387Z,0
2018-12-15T05:42:36.109Z,0
2018-12-15T05:43:36.362Z,0
2018-12-15T05:44:36.105Z,0
2018-12-15T05:45:36.332Z,0
2018-12-15T05:46:36.362Z,0
2018-12-15T05:47:36.072Z,0
2018-12-15T05:48:36.291Z,0
2018-12-15T05:49:36.045Z,0
2018-12-15T05:50:35.998Z,0
2018-12-15T05:51:35.784Z,0
2018-12-15T05:52:36.000Z,0
2018-12-15T05:53:36.262Z,0
2018-12-15T05:54:35.763Z,0
2018-12-15T05:55:35.464Z,0
2018-12-15T05:56:35.951Z,0
2018-12-15T05:57:36.172Z,0
2018-12-15T05:58:36.169Z,0
2018-12-15T05:59:36.145Z,0
2018-12-15T06:00:35.912Z,0
2018-12-15T06:01:35.414Z,0
2018-12-15T06:02:36.116Z,0
2018-12-15T06:03:36.127Z,0
2018-12-15T06:04:35.600Z,0
2018-12-15T06:05:35.860Z,0
2018-12-15T06:06:36.785Z,0
2018-12-15T06:07:36.067Z,0
2018-12-15T06:08:35.789Z,0
2018-12-15T06:09:36.030Z,0
2018-12-15T06:10:35.819Z,0
2018-12-15T06:11:35.532Z,0
2018-12-15T06:12:35.998Z,0
2018-12-15T06:13:35.728Z,0
2018-12-15T06:14:35.995Z,0
2018-12-15T06:15:35.719Z,0
2018-12-15T06:16:35.990Z,0
2018-12-15T06:17:35.704Z,0
2018-12-15T06:18:41.258Z,0
2018-12-15T06:19:35.422Z,0
2018-12-15T06:20:35.658Z,0
2018-12-15T06:21:35.435Z,0
2018-12-15T06:22:35.718Z,0
2018-12-15T06:23:35.905Z,0
2018-12-15T06:24:35.379Z,0
2018-12-15T06:25:35.607Z,0
2018-12-15T06:26:35.586Z,0
2018-12-15T06:27:35.813Z,0
2018-12-15T06:28:35.321Z,0
2018-12-15T06:29:35.560Z,0
2018-12-15T06:30:35.548Z,0
2018-12-15T06:31:35.782Z,0
2018-12-15T06:32:35.510Z,0
2018-12-15T06:33:35.775Z,0
2018-12-15T06:34:35.492Z,0
2018-12-15T06:35:35.485Z,0
2018-12-15T06:36:35.125Z,0
2018-12-15T06:37:35.711Z,0
2018-12-15T06:38:35.698Z,0
2018-12-15T06:39:35.441Z,0
2018-12-15T06:40:35.438Z,0
2018-12-15T06:41:35.401Z,0
2018-12-15T06:42:35.681Z,0
2018-12-15T06:43:35.146Z,0
2018-12-15T06:44:35.377Z,0
2018-12-15T06:45:35.387Z,0
2018-12-15T06:46:35.347Z,0
2018-12-15T06:47:35.115Z,0
2018-12-15T06:48:40.380Z,0
2018-12-15T06:49:35.064Z,0
2018-12-15T06:50:35.063Z,0
2018-12-15T06:51:35.312Z,0
2018-12-15T06:52:35.310Z,0
2018-12-15T06:53:35.529Z,0
2018-12-15T06:54:35.285Z,0
2018-12-15T06:55:35.281Z,0
2018-12-15T06:56:35.510Z,0
2018-12-15T06:57:35.483Z,0
2018-12-15T06:58:35.313Z,0
2018-12-15T06:59:35.536Z,0
2018-12-15T07:00:35.465Z,0
2018-12-15T07:01:35.204Z,0
2018-12-15T07:02:35.182Z,0
2018-12-15T07:03:35.157Z,0
2018-12-15T07:04:34.925Z,0
2018-12-15T07:05:34.706Z,0
2018-12-15T07:06:37.540Z,0
2018-12-15T07:07:35.370Z,0
2018-12-15T07:08:34.868Z,0
2018-12-15T07:09:35.107Z,0
2018-12-15T07:10:34.824Z,0
2018-12-15T07:11:35.312Z,0
2018-12-15T07:12:34.933Z,0
2018-12-15T07:13:34.556Z,0
2018-12-15T07:14:34.784Z,0
2018-12-15T07:15:35.034Z,0
2018-12-15T07:16:34.522Z,0
2018-12-15T07:17:34.774Z,0
2018-12-15T07:18:35.258Z,0
2018-12-15T07:19:34.466Z,0
2018-12-15T07:20:34.941Z,0
2018-12-15T07:21:35.204Z,0
2018-12-15T07:22:34.439Z,0
2018-12-15T07:23:35.182Z,0
2018-12-15T07:24:34.424Z,0
2018-12-15T07:25:34.906Z,0
2018-12-15T07:26:34.640Z,0
2018-12-15T07:27:34.885Z,0
2018-12-15T07:28:34.891Z,0
2018-12-15T07:29:34.345Z,0
2018-12-15T07:30:34.602Z,0
2018-12-15T07:31:34.588Z,0
2018-12-15T07:32:35.055Z,0
2018-12-15T07:33:34.301Z,0
2018-12-15T07:34:34.548Z,0
2018-12-15T07:35:34.777Z,0
2018-12-15T07:36:34.553Z,0
2018-12-15T07:37:35.652Z,0
2018-12-15T07:38:34.497Z,5
2018-12-15T07:39:35.467Z,5
2018-12-15T07:40:34.499Z,5
2018-12-15T07:41:34.725Z,5
2018-12-15T07:42:33.945Z,5
2018-12-15T07:43:34.445Z,5
2018-12-15T07:44:34.453Z,5
2018-12-15T07:45:34.446Z,5
2018-12-15T07:46:34.657Z,5
2018-12-15T07:47:34.637Z,5
2018-12-15T07:48:34.150Z,5
2018-12-15T07:49:34.149Z,5
2018-12-15T07:50:34.605Z,5
2018-12-15T07:51:34.609Z,5
2018-12-15T07:52:34.323Z,5
2018-12-15T07:53:34.574Z,5
2018-12-15T07:54:34.320Z,5
2018-12-15T07:55:34.583Z,5
2018-12-15T07:56:34.309Z,5
2018-12-15T07:57:34.524Z,5
2018-12-15T07:58:34.295Z,5
2018-12-15T07:59:34.506Z,5
2018-12-15T08:00:34.261Z,5
2018-12-15T08:01:34.487Z,5
2018-12-15T08:02:34.257Z,10
2018-12-15T08:03:34.245Z,10
2018-12-15T08:04:34.439Z,10
2018-12-15T08:05:34.181Z,10
2018-12-15T08:06:34.161Z,10
2018-12-15T08:07:37.273Z,10
2018-12-15T08:08:34.136Z,10
2018-12-15T08:09:34.394Z,10
2018-12-15T08:10:34.648Z,10
2018-12-15T08:11:34.385Z,10
2018-12-15T08:12:34.124Z,10
2018-12-15T08:13:34.348Z,10
2018-12-15T08:14:34.074Z,10
2018-12-15T08:15:34.576Z,10
2018-12-15T08:16:34.319Z,10
2018-12-15T08:17:34.028Z,10
2018-12-15T08:18:33.799Z,10
2018-12-15T08:19:34.040Z,10
2018-12-15T08:20:34.504Z,15
2018-12-15T08:21:34.253Z,15
2018-12-15T08:22:35.338Z,15
2018-12-15T08:23:34.221Z,15
2018-12-15T08:24:34.202Z,15
2018-12-15T08:25:34.206Z,15
2018-12-15T08:26:34.204Z,15
2018-12-15T08:27:34.425Z,15
2018-12-15T08:28:34.152Z,15
2018-12-15T08:29:33.892Z,15
2018-12-15T08:30:34.381Z,15
2018-12-15T08:31:33.862Z,15
2018-12-15T08:32:34.364Z,15
2018-12-15T08:33:33.876Z,15
2018-12-15T08:34:33.335Z,15
2018-12-15T08:35:34.071Z,15
2018-12-15T08:36:34.058Z,15
2018-12-15T08:37:34.051Z,15
2018-12-15T08:38:33.802Z,15
2018-12-15T08:39:34.040Z,15
2018-12-15T08:40:33.789Z,15
2018-12-15T08:41:34.010Z,15
2018-12-15T08:42:33.768Z,15
2018-12-15T08:43:33.744Z,20
2018-12-15T08:44:33.496Z,20
2018-12-15T08:45:33.455Z,20
2018-12-15T08:46:33.968Z,20
2018-12-15T08:47:33.444Z,20
2018-12-15T08:48:33.934Z,20
2018-12-15T08:49:33.939Z,20
2018-12-15T08:50:33.898Z,20
2018-12-15T08:51:33.384Z,20
2018-12-15T08:52:33.859Z,20
2018-12-15T08:53:33.630Z,20
2018-12-15T08:54:34.131Z,20
2018-12-15T08:55:33.834Z,20
2018-12-15T08:56:33.822Z,20
2018-12-15T08:57:33.825Z,25
2018-12-15T08:58:33.835Z,25
2018-12-15T08:59:33.782Z,25
2018-12-15T09:00:33.536Z,25
2018-12-15T09:01:33.526Z,25
2018-12-15T09:02:33.524Z,25
2018-12-15T09:03:33.501Z,25
2018-12-15T09:04:33.726Z,25
2018-12-15T09:05:33.998Z,25
2018-12-15T09:06:33.229Z,30
2018-12-15T09:07:33.398Z,30
2018-12-15T09:08:35.950Z,30
2018-12-15T09:09:33.671Z,30
2018-12-15T09:10:33.148Z,30
2018-12-15T09:11:33.422Z,30
2018-12-15T09:12:33.387Z,30
2018-12-15T09:13:33.117Z,30
2018-12-15T09:14:33.152Z,30
2018-12-15T09:15:33.342Z,30
2018-12-15T09:16:36.038Z,30
2018-12-15T09:17:33.343Z,30
2018-12-15T09:18:33.831Z,35
2018-12-15T09:19:33.601Z,35
2018-12-15T09:20:33.063Z,35
2018-12-15T09:21:33.307Z,35
2018-12-15T09:22:33.295Z,35
2018-12-15T09:23:33.494Z,35
2018-12-15T09:24:33.732Z,35
2018-12-15T09:25:32.997Z,35
2018-12-15T09:26:33.467Z,35
2018-12-15T09:27:33.480Z,35
2018-12-15T09:28:33.432Z,35
2018-12-15T09:29:33.202Z,35
2018-12-15T09:30:33.437Z,35
2018-12-15T09:31:33.202Z,35
2018-12-15T09:32:33.641Z,35
2018-12-15T09:33:33.401Z,35
2018-12-15T09:34:33.376Z,35
2018-12-15T09:35:33.363Z,35
2018-12-15T09:36:33.357Z,35
2018-12-15T09:37:33.657Z,35
2018-12-15T09:38:34.754Z,35
2018-12-15T09:39:33.582Z,35
2018-12-15T09:40:33.034Z,35
2018-12-15T09:41:33.037Z,35
2018-12-15T09:42:33.522Z,35
2018-12-15T09:43:33.494Z,35
2018-12-15T09:44:33.230Z,35
2018-12-15T09:45:33.004Z,35
2018-12-15T09:46:33.239Z,35
2018-12-15T09:47:32.964Z,40
2018-12-15T09:48:33.204Z,40
2018-12-15T09:49:32.960Z,40
2018-12-15T09:50:32.455Z,40
2018-12-15T09:51:33.213Z,40
2018-12-15T09:52:32.966Z,40
2018-12-15T09:53:33.549Z,40
2018-12-15T09:54:32.894Z,40
2018-12-15T09:55:32.697Z,45
2018-12-15T09:56:32.894Z,45
2018-12-15T09:57:32.857Z,45
2018-12-15T09:58:32.825Z,45
2018-12-15T09:59:32.807Z,45
2018-12-15T10:00:32.578Z,45
2018-12-15T10:01:32.829Z,45
2018-12-15T10:02:33.071Z,45
2018-12-15T10:03:33.038Z,45
2018-12-15T10:04:32.798Z,45
2018-12-15T10:05:33.004Z,45
2018-12-15T10:06:32.487Z,45
2018-12-15T10:07:33.110Z,45
2018-12-15T10:08:32.506Z,45
2018-12-15T10:09:35.187Z,45
2018-12-15T10:10:32.691Z,45
2018-12-15T10:11:32.210Z,45
2018-12-15T10:12:32.701Z,50
2018-12-15T10:13:32.667Z,50
2018-12-15T10:14:32.655Z,50
2018-12-15T10:15:33.149Z,50
2018-12-15T10:16:33.125Z,45
2018-12-15T10:17:32.880Z,45
2018-12-15T10:18:32.105Z,45
2018-12-15T10:19:33.293Z,45
2018-12-15T10:20:32.340Z,45
2018-12-15T10:21:32.568Z,45
2018-12-15T10:22:32.878Z,45
2018-12-15T10:23:32.777Z,45
2018-12-15T10:24:32.288Z,50
2018-12-15T10:25:33.046Z,50
2018-12-15T10:26:32.512Z,50
2018-12-15T10:27:32.984Z,50
2018-12-15T10:28:32.479Z,50
2018-12-15T10:29:32.730Z,50
2018-12-15T10:30:32.447Z,50
2018-12-15T10:31:32.435Z,50
2018-12-15T10:32:32.459Z,50
2018-12-15T10:33:32.914Z,50
2018-12-15T10:34:32.447Z,50
2018-12-15T10:35:32.404Z,50
2018-12-15T10:36:32.402Z,50
2018-12-15T10:37:32.663Z,50
2018-12-15T10:38:32.153Z,50
2018-12-15T10:39:35.142Z,50
2018-12-15T10:40:32.600Z,50
2018-12-15T10:41:32.591Z,50
2018-12-15T10:42:32.125Z,50
2018-12-15T10:43:32.072Z,50
2018-12-15T10:44:32.306Z,50
2018-12-15T10:45:32.036Z,50
2018-12-15T10:46:32.356Z,50
2018-12-15T10:47:32.776Z,50
2018-12-15T10:48:32.508Z,50
2018-12-15T10:49:37.862Z,50
2018-12-15T10:50:32.493Z,50
2018-12-15T10:51:31.969Z,50
2018-12-15T10:52:31.974Z,50
2018-12-15T10:53:32.192Z,50
2018-12-15T10:54:32.286Z,50
2018-12-15T10:55:32.177Z,50
2018-12-15T10:56:32.411Z,50
2018-12-15T10:57:32.404Z,50
2018-12-15T10:58:32.635Z,50
2018-12-15T10:59:32.393Z,50
2018-12-15T11:00:32.346Z,50
2018-12-15T11:01:32.349Z,50
2018-12-15T11:02:31.838Z,50
2018-12-15T11:03:32.327Z,50
2018-12-15T11:04:32.045Z,50
2018-12-15T11:05:32.143Z,50
2018-12-15T11:06:32.048Z,50
2018-12-15T11:07:32.270Z,50
2018-12-15T11:08:32.023Z,50
2018-12-15T11:09:32.268Z,50
2018-12-15T11:10:32.312Z,50
2018-12-15T11:11:32.224Z,50
2018-12-15T11:12:32.228Z,50
2018-12-15T11:13:32.210Z,50
2018-12-15T11:14:31.976Z,50
2018-12-15T11:15:32.189Z,50
2018-12-15T11:16:32.175Z,50
2018-12-15T11:17:31.935Z,50
2018-12-15T11:18:31.923Z,50
2018-12-15T11:19:37.079Z,50
2018-12-15T11:20:32.391Z,50
2018-12-15T11:21:31.621Z,50
2018-12-15T11:22:32.367Z,50
2018-12-15T11:23:31.947Z,50
2018-12-15T11:24:32.345Z,50
2018-12-15T11:25:32.329Z,50
2018-12-15T11:26:32.050Z,50
2018-12-15T11:27:31.825Z,50
2018-12-15T11:28:32.284Z,50
2018-12-15T11:29:32.274Z,50
2018-12-15T11:30:31.542Z,50
2018-12-15T11:31:32.005Z,50
2018-12-15T11:32:31.990Z,50
2018-12-15T11:33:31.978Z,50
2018-12-15T11:34:32.245Z,50
2018-12-15T11:35:31.462Z,50
2018-12-15T11:36:31.689Z,50
2018-12-15T11:37:31.687Z,50
2018-12-15T11:38:31.675Z,50
2018-12-15T11:39:31.922Z,50
2018-12-15T11:40:34.150Z,50
2018-12-15T11:41:32.149Z,50
2018-12-15T11:42:31.375Z,50
2018-12-15T11:43:31.650Z,50
2018-12-15T11:44:31.430Z,50
2018-12-15T11:45:32.123Z,50
2018-12-15T11:46:32.100Z,50
2018-12-15T11:47:31.874Z,50
2018-12-15T11:48:31.803Z,50
2018-12-15T11:49:31.557Z,50
2018-12-15T11:50:32.136Z,45
2018-12-15T11:51:31.827Z,45
2018-12-15T11:52:31.516Z,45
2018-12-15T11:53:31.748Z,45
2018-12-15T11:54:31.727Z,45
2018-12-15T11:55:32.039Z,45
2018-12-15T11:56:31.746Z,45
2018-12-15T11:57:31.692Z,45
2018-12-15T11:58:31.206Z,45
2018-12-15T11:59:31.446Z,50
2018-12-15T12:00:31.942Z,50
2018-12-15T12:01:31.904Z,50
2018-12-15T12:02:36.413Z,50
2018-12-15T12:03:31.885Z,50
2018-12-15T12:04:31.384Z,50
2018-12-15T12:05:31.353Z,50
2018-12-15T12:06:31.114Z,50
2018-12-15T12:07:31.349Z,50
2018-12-15T12:08:31.802Z,50
2018-12-15T12:09:31.584Z,50
2018-12-15T12:10:31.873Z,50
2018-12-15T12:11:31.550Z,50
2018-12-15T12:12:31.917Z,50
2018-12-15T12:13:31.578Z,50
2018-12-15T12:14:31.781Z,50
2018-12-15T12:15:31.512Z,50
2018-12-15T12:16:31.492Z,50
2018-12-15T12:17:31.472Z,50
2018-12-15T12:18:31.715Z,50
2018-12-15T12:19:31.472Z,50
2018-12-15T12:20:31.447Z,50
2018-12-15T12:21:30.950Z,50
2018-12-15T12:22:31.171Z,50
2018-12-15T12:23:31.642Z,50
2018-12-15T12:24:31.143Z,50
2018-12-15T12:25:31.139Z,50
2018-12-15T12:26:30.877Z,50
2018-12-15T12:27:31.123Z,50
2018-12-15T12:28:31.591Z,50
2018-12-15T12:29:31.083Z,50
2018-12-15T12:30:31.066Z,50
2018-12-15T12:31:31.543Z,50
2018-12-15T12:32:31.303Z,50
2018-12-15T12:33:31.527Z,50
2018-12-15T12:34:31.521Z,50
2018-12-15T12:35:31.266Z,50
2018-12-15T12:36:31.507Z,50
2018-12-15T12:37:31.513Z,50
2018-12-15T12:38:31.461Z,50
2018-12-15T12:39:31.207Z,50
2018-12-15T12:40:31.452Z,50
2018-12-15T12:41:30.712Z,50
2018-12-15T12:42:30.750Z,50
2018-12-15T12:43:31.186Z,50
2018-12-15T12:44:31.417Z,50
2018-12-15T12:45:31.154Z,50
2018-12-15T12:46:31.169Z,50
2018-12-15T12:47:31.202Z,50
2018-12-15T12:48:31.140Z,50
2018-12-15T12:49:31.348Z,50
2018-12-15T12:50:32.403Z,45
2018-12-15T12:51:30.866Z,50
2018-12-15T12:52:31.072Z,50
2018-12-15T12:53:31.321Z,50
2018-12-15T12:54:30.833Z,50
2018-12-15T12:55:31.263Z,50
2018-12-15T12:56:30.523Z,50
2018-12-15T12:57:30.782Z,50
2018-12-15T12:58:31.237Z,50
2018-12-15T12:59:30.993Z,50
2018-12-15T13:00:30.971Z,50
2018-12-15T13:01:31.274Z,50
2018-12-15T13:02:31.215Z,50
2018-12-15T13:03:30.457Z,45
2018-12-15T13:04:31.196Z,45
2018-12-15T13:05:30.960Z,45
2018-12-15T13:06:30.717Z,45
2018-12-15T13:07:31.168Z,45
2018-12-15T13:08:31.154Z,45
2018-12-15T13:09:31.157Z,45
2018-12-15T13:10:30.884Z,45
2018-12-15T13:11:31.172Z,45
2018-12-15T13:12:31.110Z,45
2018-12-15T13:13:30.886Z,45
2018-12-15T13:14:30.598Z,40
2018-12-15T13:15:30.572Z,40
2018-12-15T13:16:30.836Z,40
2018-12-15T13:17:30.804Z,40
2018-12-15T13:18:30.796Z,40
2018-12-15T13:19:31.032Z,40
2018-12-15T13:20:30.833Z,40
2018-12-15T13:21:31.005Z,40
2018-12-15T13:22:30.772Z,40
2018-12-15T13:23:30.487Z,40
2018-12-15T13:24:30.728Z,40
2018-12-15T13:25:30.961Z,40
2018-12-15T13:26:30.215Z,40
2018-12-15T13:27:29.934Z,40
2018-12-15T13:28:30.679Z,40
2018-12-15T13:29:30.417Z,40
2018-12-15T13:30:30.648Z,40
2018-12-15T13:31:30.165Z,40
2018-12-15T13:32:30.621Z,40
2018-12-15T13:33:30.624Z,40
2018-12-15T13:34:30.365Z,40
2018-12-15T13:35:30.417Z,40
2018-12-15T13:36:32.016Z,40
2018-12-15T13:37:30.839Z,35
2018-12-15T13:38:30.582Z,35
2018-12-15T13:39:30.558Z,35
2018-12-15T13:40:30.534Z,35
2018-12-15T13:41:30.528Z,35
2018-12-15T13:42:30.021Z,35
2018-12-15T13:43:30.519Z,35
2018-12-15T13:44:30.778Z,35
2018-12-15T13:45:30.236Z,30
2018-12-15T13:46:30.211Z,30
2018-12-15T13:50:38.764Z,30
2018-12-15T13:51:19.078Z,30
2018-12-15T13:52:19.787Z,30
2018-12-15T13:53:19.614Z,30
2018-12-15T13:54:19.529Z,30
2018-12-15T13:55:19.829Z,30
2018-12-15T13:56:19.329Z,30
2018-12-15T13:57:19.290Z,30
2018-12-15T13:58:19.480Z,25
2018-12-15T13:59:19.208Z,25
2018-12-15T14:00:19.219Z,25
2018-12-15T14:01:19.234Z,25
2018-12-15T14:02:19.192Z,25
2018-12-15T14:03:19.427Z,25
2018-12-15T14:04:19.426Z,25
2018-12-15T14:05:18.950Z,25
2018-12-15T14:06:19.454Z,25
2018-12-15T14:07:19.140Z,20
2018-12-15T14:08:19.128Z,25
2018-12-15T14:09:19.605Z,25
2018-12-15T14:10:19.116Z,25
2018-12-15T14:11:19.118Z,25
2018-12-15T14:12:18.882Z,25
2018-12-15T14:13:19.323Z,20
2018-12-15T14:14:19.306Z,20
2018-12-15T14:15:18.794Z,20
2018-12-15T14:16:18.944Z,20
2018-12-15T14:17:19.522Z,20
2018-12-15T14:18:19.539Z,20
2018-12-15T14:19:18.997Z,20
2018-12-15T14:20:25.944Z,15
2018-12-15T14:21:18.973Z,15
2018-12-15T14:22:18.987Z,15
2018-12-15T14:23:19.200Z,15
2018-12-15T14:24:18.944Z,15
2018-12-15T14:25:18.440Z,15
2018-12-15T14:26:18.699Z,15
2018-12-15T14:27:18.949Z,15
2018-12-15T14:28:19.067Z,15
2018-12-15T14:29:19.142Z,15
2018-12-15T14:30:18.872Z,15
2018-12-15T14:31:19.413Z,15
2018-12-15T14:32:19.090Z,15
2018-12-15T14:33:19.075Z,15
2018-12-15T14:34:20.404Z,15
2018-12-15T14:35:19.363Z,15